sensor_id;sensor_type;location;lat;lon;timestamp;pressure;altitude;pressure_sealevel;temperature;humidity
36828;BME280;22766;48.042;11.192;2023-04-10T00:02:21;95657.53;;;0.98;100.00
36828;BME280;22766;48.042;11.192;2023-04-10T00:04:48;95652.78;;;0.92;100.00
36828;BME280;22766;48.042;11.192;2023-04-10T00:07:15;95659.81;;;0.87;100.00
36828;BME280;22766;48.042;11.192;2023-04-10T00:09:42;95656.53;;;0.85;100.00
36828;BME280;22766;48.042;11.192;2023-04-10T00:12:09;95651.00;;;0.77;100.00
36828;BME280;22766;48.042;11.192;2023-04-10T00:14:36;95643.59;;;0.72;100.00
36828;BME280;22766;48.042;11.192;2023-04-10T00:17:03;95639.53;;;0.70;100.00
36828;BME280;22766;48.042;11.192;2023-04-10T00:19:30;95638.78;;;0.68;100.00
36828;BME280;22766;48.042;11.192;2023-04-10T00:21:57;95636.25;;;0.68;100.00
36828;BME280;22766;48.042;11.192;2023-04-10T00:24:24;95626.06;;;0.68;100.00
36828;BME280;22766;48.042;11.192;2023-04-10T00:26:51;95623.44;;;0.69;100.00
36828;BME280;22766;48.042;11.192;2023-04-10T00:29:18;95629.50;;;0.67;100.00
36828;BME280;22766;48.042;11.192;2023-04-10T00:31:45;95624.50;;;0.65;100.00
36828;BME280;22766;48.042;11.192;2023-04-10T00:34:12;95615.38;;;0.61;100.00
36828;BME280;22766;48.042;11.192;2023-04-10T00:36:39;95616.44;;;0.57;100.00
36828;BME280;22766;48.042;11.192;2023-04-10T00:39:08;95617.50;;;0.53;100.00
36828;BME280;22766;48.042;11.192;2023-04-10T00:41:34;95620.28;;;0.49;100.00
36828;BME280;22766;48.042;11.192;2023-04-10T00:44:24;95618.13;;;0.41;100.00
36828;BME280;22766;48.042;11.192;2023-04-10T00:46:51;95624.25;;;0.37;100.00
36828;BME280;22766;48.042;11.192;2023-04-10T00:49:18;95620.97;;;0.35;100.00
36828;BME280;22766;48.042;11.192;2023-04-10T00:51:45;95624.53;;;0.31;100.00
36828;BME280;22766;48.042;11.192;2023-04-10T00:54:13;95619.00;;;0.23;100.00
36828;BME280;22766;48.042;11.192;2023-04-10T00:56:40;95615.81;;;0.20;100.00
36828;BME280;22766;48.042;11.192;2023-04-10T00:59:07;95609.19;;;0.17;100.00
36828;BME280;22766;48.042;11.192;2023-04-10T01:01:33;95615.22;;;0.15;100.00
36828;BME280;22766;48.042;11.192;2023-04-10T01:04:01;95612.78;;;0.13;100.00
36828;BME280;22766;48.042;11.192;2023-04-10T01:11:51;95609.78;;;0.05;100.00
36828;BME280;22766;48.042;11.192;2023-04-10T01:16:59;95605.06;;;-0.03;100.00
36828;BME280;22766;48.042;11.192;2023-04-10T01:22:03;95600.06;;;-0.04;100.00
36828;BME280;22766;48.042;11.192;2023-04-10T01:27:45;95599.09;;;-0.02;100.00
36828;BME280;22766;48.042;11.192;2023-04-10T01:30:19;95594.47;;;-0.11;100.00
36828;BME280;22766;48.042;11.192;2023-04-10T01:32:49;95584.53;;;-0.15;100.00
36828;BME280;22766;48.042;11.192;2023-04-10T01:35:20;95580.44;;;-0.18;100.00
36828;BME280;22766;48.042;11.192;2023-04-10T01:37:48;95578.66;;;-0.16;100.00
36828;BME280;22766;48.042;11.192;2023-04-10T01:40:18;95578.28;;;-0.25;100.00
36828;BME280;22766;48.042;11.192;2023-04-10T01:42:52;95571.03;;;-0.33;100.00
36828;BME280;22766;48.042;11.192;2023-04-10T01:45:27;95575.34;;;-0.35;100.00
36828;BME280;22766;48.042;11.192;2023-04-10T01:47:55;95575.63;;;-0.41;100.00
36828;BME280;22766;48.042;11.192;2023-04-10T01:50:22;95573.31;;;-0.45;100.00
36828;BME280;22766;48.042;11.192;2023-04-10T01:52:51;95567.72;;;-0.52;100.00
36828;BME280;22766;48.042;11.192;2023-04-10T01:55:21;95565.66;;;-0.62;100.00
36828;BME280;22766;48.042;11.192;2023-04-10T01:57:53;95566.94;;;-0.71;100.00
36828;BME280;22766;48.042;11.192;2023-04-10T02:00:21;95564.16;;;-0.66;100.00
36828;BME280;22766;48.042;11.192;2023-04-10T02:02:49;95568.97;;;-0.60;100.00
36828;BME280;22766;48.042;11.192;2023-04-10T02:05:17;95571.41;;;-0.59;100.00
36828;BME280;22766;48.042;11.192;2023-04-10T02:08:04;95568.38;;;-0.65;100.00
36828;BME280;22766;48.042;11.192;2023-04-10T02:13:20;95577.31;;;-0.94;100.00
36828;BME280;22766;48.042;11.192;2023-04-10T02:15:49;95580.47;;;-1.08;100.00
36828;BME280;22766;48.042;11.192;2023-04-10T02:18:17;95577.41;;;-1.14;100.00
36828;BME280;22766;48.042;11.192;2023-04-10T02:20:46;95580.94;;;-1.18;100.00
36828;BME280;22766;48.042;11.192;2023-04-10T02:23:15;95588.59;;;-1.20;100.00
36828;BME280;22766;48.042;11.192;2023-04-10T02:25:42;95582.84;;;-1.23;100.00
36828;BME280;22766;48.042;11.192;2023-04-10T02:28:09;95580.31;;;-1.23;100.00
36828;BME280;22766;48.042;11.192;2023-04-10T02:30:36;95579.50;;;-1.24;100.00
36828;BME280;22766;48.042;11.192;2023-04-10T02:33:04;95579.63;;;-1.27;100.00
36828;BME280;22766;48.042;11.192;2023-04-10T02:35:32;95579.84;;;-1.31;100.00
36828;BME280;22766;48.042;11.192;2023-04-10T02:38:01;95583.44;;;-1.37;100.00
36828;BME280;22766;48.042;11.192;2023-04-10T02:40:29;95585.25;;;-1.39;100.00
36828;BME280;22766;48.042;11.192;2023-04-10T02:43:11;95579.53;;;-1.44;100.00
36828;BME280;22766;48.042;11.192;2023-04-10T02:45:38;95591.38;;;-1.44;100.00
36828;BME280;22766;48.042;11.192;2023-04-10T02:48:06;95586.47;;;-1.47;100.00
36828;BME280;22766;48.042;11.192;2023-04-10T02:50:33;95586.28;;;-1.43;100.00
36828;BME280;22766;48.042;11.192;2023-04-10T02:53:00;95588.47;;;-1.35;100.00
36828;BME280;22766;48.042;11.192;2023-04-10T02:55:27;95583.25;;;-1.32;100.00
36828;BME280;22766;48.042;11.192;2023-04-10T02:57:54;95585.78;;;-1.32;100.00
36828;BME280;22766;48.042;11.192;2023-04-10T03:00:21;95580.72;;;-1.32;100.00
36828;BME280;22766;48.042;11.192;2023-04-10T03:03:12;95584.50;;;-1.41;100.00
36828;BME280;22766;48.042;11.192;2023-04-10T03:05:45;95585.38;;;-1.42;100.00
36828;BME280;22766;48.042;11.192;2023-04-10T03:08:19;95568.81;;;-1.49;100.00
36828;BME280;22766;48.042;11.192;2023-04-10T03:10:46;95574.97;;;-1.54;100.00
36828;BME280;22766;48.042;11.192;2023-04-10T03:13:16;95578.50;;;-1.58;100.00
36828;BME280;22766;48.042;11.192;2023-04-10T03:15:43;95568.81;;;-1.69;100.00
36828;BME280;22766;48.042;11.192;2023-04-10T03:18:10;95567.19;;;-1.70;100.00
36828;BME280;22766;48.042;11.192;2023-04-10T03:20:39;95571.50;;;-1.72;100.00
36828;BME280;22766;48.042;11.192;2023-04-10T03:23:06;95579.28;;;-1.76;100.00
36828;BME280;22766;48.042;11.192;2023-04-10T03:25:33;95577.50;;;-1.74;100.00
36828;BME280;22766;48.042;11.192;2023-04-10T03:28:02;95580.00;;;-1.73;100.00
36828;BME280;22766;48.042;11.192;2023-04-10T03:30:29;95583.00;;;-1.65;100.00
36828;BME280;22766;48.042;11.192;2023-04-10T03:32:56;95582.47;;;-1.53;100.00
36828;BME280;22766;48.042;11.192;2023-04-10T03:35:22;95582.31;;;-1.48;100.00
36828;BME280;22766;48.042;11.192;2023-04-10T03:37:49;95578.88;;;-1.47;100.00
36828;BME280;22766;48.042;11.192;2023-04-10T03:40:16;95584.00;;;-1.49;100.00
36828;BME280;22766;48.042;11.192;2023-04-10T03:42:43;95578.94;;;-1.49;100.00
36828;BME280;22766;48.042;11.192;2023-04-10T03:45:10;95583.56;;;-1.58;100.00
36828;BME280;22766;48.042;11.192;2023-04-10T03:47:37;95576.84;;;-1.59;100.00
36828;BME280;22766;48.042;11.192;2023-04-10T03:50:07;95571.25;;;-1.66;100.00
36828;BME280;22766;48.042;11.192;2023-04-10T03:52:42;95577.06;;;-1.64;100.00
36828;BME280;22766;48.042;11.192;2023-04-10T03:55:13;95576.41;;;-1.69;100.00
36828;BME280;22766;48.042;11.192;2023-04-10T03:57:45;95579.84;;;-1.70;100.00
36828;BME280;22766;48.042;11.192;2023-04-10T04:00:15;95579.28;;;-1.76;100.00
36828;BME280;22766;48.042;11.192;2023-04-10T04:02:48;95576.06;;;-1.80;100.00
36828;BME280;22766;48.042;11.192;2023-04-10T04:05:36;95580.44;;;-1.83;100.00
36828;BME280;22766;48.042;11.192;2023-04-10T04:08:26;95583.09;;;-1.86;100.00
36828;BME280;22766;48.042;11.192;2023-04-10T04:11:03;95576.38;;;-1.88;100.00
36828;BME280;22766;48.042;11.192;2023-04-10T04:13:35;95580.25;;;-1.79;100.00
36828;BME280;22766;48.042;11.192;2023-04-10T04:16:09;95580.56;;;-1.86;100.00
36828;BME280;22766;48.042;11.192;2023-04-10T04:18:43;95582.66;;;-1.96;100.00
36828;BME280;22766;48.042;11.192;2023-04-10T04:21:27;95580.31;;;-2.01;100.00
36828;BME280;22766;48.042;11.192;2023-04-10T04:24:03;95590.44;;;-2.01;100.00
36828;BME280;22766;48.042;11.192;2023-04-10T04:26:51;95587.34;;;-2.07;100.00
36828;BME280;22766;48.042;11.192;2023-04-10T04:29:50;95590.59;;;-2.05;100.00
36828;BME280;22766;48.042;11.192;2023-04-10T04:32:34;95599.72;;;-2.01;100.00
36828;BME280;22766;48.042;11.192;2023-04-10T04:35:12;95598.94;;;-2.03;100.00
36828;BME280;22766;48.042;11.192;2023-04-10T04:38:13;95597.50;;;-2.09;100.00
36828;BME280;22766;48.042;11.192;2023-04-10T04:40:59;95601.16;;;-2.16;100.00
36828;BME280;22766;48.042;11.192;2023-04-10T04:43:41;95598.66;;;-2.16;100.00
36828;BME280;22766;48.042;11.192;2023-04-10T04:46:24;95604.41;;;-2.12;100.00
36828;BME280;22766;48.042;11.192;2023-04-10T04:49:10;95611.22;;;-2.14;100.00
36828;BME280;22766;48.042;11.192;2023-04-10T04:51:47;95605.38;;;-2.15;100.00
36828;BME280;22766;48.042;11.192;2023-04-10T04:54:42;95606.16;;;-2.14;100.00
36828;BME280;22766;48.042;11.192;2023-04-10T04:57:29;95601.69;;;-2.08;100.00
36828;BME280;22766;48.042;11.192;2023-04-10T05:00:09;95598.94;;;-2.03;100.00
36828;BME280;22766;48.042;11.192;2023-04-10T05:03:02;95597.16;;;-2.00;100.00
36828;BME280;22766;48.042;11.192;2023-04-10T05:05:34;95606.19;;;-1.94;100.00
36828;BME280;22766;48.042;11.192;2023-04-10T05:08:23;95608.66;;;-1.93;100.00
36828;BME280;22766;48.042;11.192;2023-04-10T05:11:21;95595.06;;;-1.90;100.00
36828;BME280;22766;48.042;11.192;2023-04-10T05:14:06;95595.94;;;-1.91;100.00
36828;BME280;22766;48.042;11.192;2023-04-10T05:16:43;95603.19;;;-1.83;100.00
36828;BME280;22766;48.042;11.192;2023-04-10T05:19:18;95600.41;;;-1.77;100.00
36828;BME280;22766;48.042;11.192;2023-04-10T05:22:09;95596.66;;;-1.69;100.00
36828;BME280;22766;48.042;11.192;2023-04-10T05:24:55;95588.72;;;-1.60;100.00
36828;BME280;22766;48.042;11.192;2023-04-10T05:27:28;95590.75;;;-1.49;100.00
36828;BME280;22766;48.042;11.192;2023-04-10T05:29:57;95595.16;;;-1.34;100.00
36828;BME280;22766;48.042;11.192;2023-04-10T05:32:43;95588.53;;;-1.18;100.00
36828;BME280;22766;48.042;11.192;2023-04-10T05:35:25;95591.34;;;-1.06;100.00
36828;BME280;22766;48.042;11.192;2023-04-10T05:38:18;95595.59;;;-1.06;100.00
36828;BME280;22766;48.042;11.192;2023-04-10T05:41:12;95595.72;;;-0.90;100.00
36828;BME280;22766;48.042;11.192;2023-04-10T05:44:14;95607.34;;;-0.68;100.00
36828;BME280;22766;48.042;11.192;2023-04-10T05:47:16;95605.47;;;-0.46;100.00
36828;BME280;22766;48.042;11.192;2023-04-10T05:49:56;95613.16;;;-0.30;100.00
36828;BME280;22766;48.042;11.192;2023-04-10T05:52:48;95615.34;;;-0.06;100.00
36828;BME280;22766;48.042;11.192;2023-04-10T05:55:33;95618.44;;;0.18;100.00
36828;BME280;22766;48.042;11.192;2023-04-10T05:58:32;95634.03;;;0.45;100.00
36828;BME280;22766;48.042;11.192;2023-04-10T06:01:11;95630.16;;;0.70;100.00
36828;BME280;22766;48.042;11.192;2023-04-10T06:03:48;95630.25;;;1.02;100.00
36828;BME280;22766;48.042;11.192;2023-04-10T06:06:16;95627.56;;;1.36;100.00
36828;BME280;22766;48.042;11.192;2023-04-10T06:08:43;95635.25;;;1.65;100.00
36828;BME280;22766;48.042;11.192;2023-04-10T06:11:09;95626.75;;;1.96;100.00
36828;BME280;22766;48.042;11.192;2023-04-10T06:13:36;95626.47;;;2.16;100.00
36828;BME280;22766;48.042;11.192;2023-04-10T06:16:03;95626.16;;;2.36;100.00
36828;BME280;22766;48.042;11.192;2023-04-10T06:18:32;95621.38;;;2.60;100.00
36828;BME280;22766;48.042;11.192;2023-04-10T06:20:58;95618.94;;;2.87;100.00
36828;BME280;22766;48.042;11.192;2023-04-10T06:23:27;95614.47;;;2.90;100.00
36828;BME280;22766;48.042;11.192;2023-04-10T06:25:54;95613.91;;;2.85;100.00
36828;BME280;22766;48.042;11.192;2023-04-10T06:28:22;95608.56;;;3.04;100.00
36828;BME280;22766;48.042;11.192;2023-04-10T06:30:53;95610.59;;;3.25;100.00
36828;BME280;22766;48.042;11.192;2023-04-10T06:33:29;95606.06;;;3.30;100.00
36828;BME280;22766;48.042;11.192;2023-04-10T06:35:57;95606.75;;;3.46;100.00
36828;BME280;22766;48.042;11.192;2023-04-10T06:38:24;95600.66;;;3.75;100.00
36828;BME280;22766;48.042;11.192;2023-04-10T06:40:51;95601.16;;;4.07;100.00
36828;BME280;22766;48.042;11.192;2023-04-10T06:43:18;95599.31;;;4.09;100.00
36828;BME280;22766;48.042;11.192;2023-04-10T06:45:45;95600.91;;;4.62;100.00
36828;BME280;22766;48.042;11.192;2023-04-10T06:48:11;95591.81;;;4.96;100.00
36828;BME280;22766;48.042;11.192;2023-04-10T06:50:38;95587.53;;;5.45;100.00
36828;BME280;22766;48.042;11.192;2023-04-10T06:53:05;95590.97;;;5.56;100.00
36828;BME280;22766;48.042;11.192;2023-04-10T06:55:32;95586.69;;;5.81;100.00
36828;BME280;22766;48.042;11.192;2023-04-10T06:57:58;95586.75;;;5.92;100.00
36828;BME280;22766;48.042;11.192;2023-04-10T07:00:25;95578.50;;;6.23;100.00
36828;BME280;22766;48.042;11.192;2023-04-10T07:02:52;95581.81;;;6.47;100.00
36828;BME280;22766;48.042;11.192;2023-04-10T07:05:19;95579.03;;;6.61;100.00
36828;BME280;22766;48.042;11.192;2023-04-10T07:07:46;95575.69;;;6.83;100.00
36828;BME280;22766;48.042;11.192;2023-04-10T07:10:13;95573.81;;;6.96;98.43
36828;BME280;22766;48.042;11.192;2023-04-10T07:12:39;95575.34;;;7.20;98.11
36828;BME280;22766;48.042;11.192;2023-04-10T07:15:06;95576.31;;;7.62;95.43
36828;BME280;22766;48.042;11.192;2023-04-10T07:17:33;95577.56;;;7.90;85.08
36828;BME280;22766;48.042;11.192;2023-04-10T07:20:01;95577.56;;;7.90;80.10
36828;BME280;22766;48.042;11.192;2023-04-10T07:22:27;95582.13;;;8.18;83.05
36828;BME280;22766;48.042;11.192;2023-04-10T07:24:54;95574.38;;;8.29;75.90
36828;BME280;22766;48.042;11.192;2023-04-10T07:27:21;95576.78;;;8.62;71.90
36828;BME280;22766;48.042;11.192;2023-04-10T07:29:53;95579.59;;;8.38;73.81
36828;BME280;22766;48.042;11.192;2023-04-10T07:32:20;95577.41;;;8.23;69.38
36828;BME280;22766;48.042;11.192;2023-04-10T07:34:47;95582.44;;;8.56;70.24
36828;BME280;22766;48.042;11.192;2023-04-10T07:37:14;95577.06;;;8.69;71.23
36828;BME280;22766;48.042;11.192;2023-04-10T07:39:41;95579.56;;;9.00;70.64
36828;BME280;22766;48.042;11.192;2023-04-10T07:42:09;95579.44;;;9.02;65.94
36828;BME280;22766;48.042;11.192;2023-04-10T07:44:36;95583.13;;;9.09;65.82
36828;BME280;22766;48.042;11.192;2023-04-10T07:47:03;95577.81;;;9.40;64.39
36828;BME280;22766;48.042;11.192;2023-04-10T07:49:29;95568.13;;;9.73;59.44
36828;BME280;22766;48.042;11.192;2023-04-10T07:51:56;95576.44;;;9.86;61.61
36828;BME280;22766;48.042;11.192;2023-04-10T07:54:23;95572.66;;;10.09;58.64
36828;BME280;22766;48.042;11.192;2023-04-10T07:56:53;95570.91;;;10.28;58.62
36828;BME280;22766;48.042;11.192;2023-04-10T07:59:19;95568.75;;;10.14;55.18
36828;BME280;22766;48.042;11.192;2023-04-10T08:01:46;95571.03;;;10.08;52.70
36828;BME280;22766;48.042;11.192;2023-04-10T08:04:13;95569.66;;;9.94;55.95
36828;BME280;22766;48.042;11.192;2023-04-10T08:06:40;95564.75;;;9.72;54.90
36828;BME280;22766;48.042;11.192;2023-04-10T08:09:07;95568.19;;;10.20;55.74
36828;BME280;22766;48.042;11.192;2023-04-10T08:11:35;95562.50;;;10.17;51.31
36828;BME280;22766;48.042;11.192;2023-04-10T08:14:04;95560.81;;;9.78;55.83
36828;BME280;22766;48.042;11.192;2023-04-10T08:16:33;95555.97;;;10.51;54.87
36828;BME280;22766;48.042;11.192;2023-04-10T08:19:01;95558.69;;;10.30;52.71
36828;BME280;22766;48.042;11.192;2023-04-10T08:21:29;95552.31;;;10.44;53.33
36828;BME280;22766;48.042;11.192;2023-04-10T08:23:58;95554.56;;;10.66;52.78
36828;BME280;22766;48.042;11.192;2023-04-10T08:26:26;95545.59;;;11.16;50.82
36828;BME280;22766;48.042;11.192;2023-04-10T08:28:56;95560.63;;;11.58;50.51
36828;BME280;22766;48.042;11.192;2023-04-10T08:31:24;95560.25;;;11.25;47.35
36828;BME280;22766;48.042;11.192;2023-04-10T08:33:52;95550.38;;;11.39;48.92
36828;BME280;22766;48.042;11.192;2023-04-10T08:36:19;95555.13;;;11.70;46.24
36828;BME280;22766;48.042;11.192;2023-04-10T08:38:47;95558.19;;;12.01;44.34
36828;BME280;22766;48.042;11.192;2023-04-10T08:41:16;95553.25;;;11.90;42.65
36828;BME280;22766;48.042;11.192;2023-04-10T08:43:44;95554.66;;;12.19;44.93
36828;BME280;22766;48.042;11.192;2023-04-10T08:46:15;95560.66;;;12.20;42.69
36828;BME280;22766;48.042;11.192;2023-04-10T08:51:21;95555.41;;;12.30;41.85
36828;BME280;22766;48.042;11.192;2023-04-10T08:53:57;95561.13;;;12.76;42.13
36828;BME280;22766;48.042;11.192;2023-04-10T08:56:30;95550.94;;;12.57;40.66
36828;BME280;22766;48.042;11.192;2023-04-10T08:58:58;95547.34;;;12.76;39.37
36828;BME280;22766;48.042;11.192;2023-04-10T09:01:26;95547.88;;;12.62;39.57
36828;BME280;22766;48.042;11.192;2023-04-10T09:03:53;95551.53;;;13.20;41.15
36828;BME280;22766;48.042;11.192;2023-04-10T09:06:21;95542.16;;;13.27;40.44
36828;BME280;22766;48.042;11.192;2023-04-10T09:08:47;95546.25;;;13.04;38.88
36828;BME280;22766;48.042;11.192;2023-04-10T09:11:14;95541.38;;;13.35;39.43
36828;BME280;22766;48.042;11.192;2023-04-10T09:13:42;95545.09;;;13.82;39.09
36828;BME280;22766;48.042;11.192;2023-04-10T09:16:10;95543.25;;;13.50;37.81
36828;BME280;22766;48.042;11.192;2023-04-10T09:21:12;95530.44;;;14.39;38.72
36828;BME280;22766;48.042;11.192;2023-04-10T09:23:40;95532.25;;;14.54;37.17
36828;BME280;22766;48.042;11.192;2023-04-10T09:26:27;95529.31;;;14.65;36.34
36828;BME280;22766;48.042;11.192;2023-04-10T09:29:02;95533.22;;;14.45;36.03
36828;BME280;22766;48.042;11.192;2023-04-10T09:31:33;95528.31;;;14.82;37.09
36828;BME280;22766;48.042;11.192;2023-04-10T09:34:11;95527.84;;;14.39;33.63
36828;BME280;22766;48.042;11.192;2023-04-10T09:36:39;95522.31;;;14.50;34.06
36828;BME280;22766;48.042;11.192;2023-04-10T09:39:10;95519.56;;;14.27;34.05
36828;BME280;22766;48.042;11.192;2023-04-10T09:41:53;95516.59;;;14.86;35.67
36828;BME280;22766;48.042;11.192;2023-04-10T09:44:32;95510.38;;;15.12;36.52
36828;BME280;22766;48.042;11.192;2023-04-10T09:49:50;95510.78;;;14.68;32.46
36828;BME280;22766;48.042;11.192;2023-04-10T09:52:24;95508.81;;;14.86;33.22
36828;BME280;22766;48.042;11.192;2023-04-10T09:54:57;95500.53;;;14.83;36.61
36828;BME280;22766;48.042;11.192;2023-04-10T09:57:28;95503.59;;;14.86;35.25
36828;BME280;22766;48.042;11.192;2023-04-10T09:59:56;95493.22;;;14.86;36.04
36828;BME280;22766;48.042;11.192;2023-04-10T10:02:28;95490.78;;;14.85;35.80
36828;BME280;22766;48.042;11.192;2023-04-10T10:04:57;95487.06;;;14.23;33.23
36828;BME280;22766;48.042;11.192;2023-04-10T10:07:26;95488.88;;;14.23;36.15
36828;BME280;22766;48.042;11.192;2023-04-10T10:09:55;95474.38;;;14.68;36.33
36828;BME280;22766;48.042;11.192;2023-04-10T10:17:39;95476.50;;;15.20;31.73
36828;BME280;22766;48.042;11.192;2023-04-10T10:20:10;95478.53;;;15.10;30.33
36828;BME280;22766;48.042;11.192;2023-04-10T10:22:37;95469.53;;;15.20;30.32
36828;BME280;22766;48.042;11.192;2023-04-10T10:25:05;95461.94;;;15.02;30.91
36828;BME280;22766;48.042;11.192;2023-04-10T10:27:36;95462.34;;;15.30;30.80
36828;BME280;22766;48.042;11.192;2023-04-10T10:30:06;95448.97;;;15.72;30.83
36828;BME280;22766;48.042;11.192;2023-04-10T10:32:54;95457.69;;;15.56;28.78
36828;BME280;22766;48.042;11.192;2023-04-10T10:35:22;95453.13;;;15.58;27.96
36828;BME280;22766;48.042;11.192;2023-04-10T10:37:53;95446.06;;;15.44;29.94
36828;BME280;22766;48.042;11.192;2023-04-10T10:40:44;95439.38;;;15.72;29.52
36828;BME280;22766;48.042;11.192;2023-04-10T10:46:03;95433.75;;;16.06;28.63
36828;BME280;22766;48.042;11.192;2023-04-10T10:48:32;95429.69;;;16.78;28.28
36828;BME280;22766;48.042;11.192;2023-04-10T10:50:59;95422.50;;;16.65;26.91
36828;BME280;22766;48.042;11.192;2023-04-10T10:53:42;95419.44;;;16.25;27.72
36828;BME280;22766;48.042;11.192;2023-04-10T10:58:54;95420.34;;;16.54;27.62
36828;BME280;22766;48.042;11.192;2023-04-10T11:01:23;95420.06;;;16.93;28.22
36828;BME280;22766;48.042;11.192;2023-04-10T11:03:50;95403.69;;;17.64;27.44
36828;BME280;22766;48.042;11.192;2023-04-10T11:06:18;95402.25;;;18.25;25.92
36828;BME280;22766;48.042;11.192;2023-04-10T11:08:47;95400.03;;;18.49;25.89
36828;BME280;22766;48.042;11.192;2023-04-10T11:11:24;95395.31;;;19.41;26.68
36828;BME280;22766;48.042;11.192;2023-04-10T11:16:40;95379.66;;;19.13;25.40
36828;BME280;22766;48.042;11.192;2023-04-10T11:19:10;95382.41;;;19.39;25.86
36828;BME280;22766;48.042;11.192;2023-04-10T11:24:29;95373.56;;;19.40;23.70
36828;BME280;22766;48.042;11.192;2023-04-10T11:27:38;95375.41;;;17.67;24.30
36828;BME280;22766;48.042;11.192;2023-04-10T11:30:28;95367.81;;;17.72;24.77
36828;BME280;22766;48.042;11.192;2023-04-10T11:32:56;95364.66;;;18.88;26.57
36828;BME280;22766;48.042;11.192;2023-04-10T11:35:24;95358.75;;;19.93;25.50
36828;BME280;22766;48.042;11.192;2023-04-10T11:38:07;95366.56;;;19.67;25.07
36828;BME280;22766;48.042;11.192;2023-04-10T11:40:33;95370.78;;;19.55;22.93
36828;BME280;22766;48.042;11.192;2023-04-10T11:43:13;95353.72;;;19.92;24.42
36828;BME280;22766;48.042;11.192;2023-04-10T11:45:40;95360.16;;;19.83;22.91
36828;BME280;22766;48.042;11.192;2023-04-10T11:48:08;95359.28;;;18.34;25.39
36828;BME280;22766;48.042;11.192;2023-04-10T11:50:35;95357.94;;;19.13;25.29
36828;BME280;22766;48.042;11.192;2023-04-10T11:53:16;95355.31;;;18.72;26.08
36828;BME280;22766;48.042;11.192;2023-04-10T11:55:43;95349.13;;;19.27;25.98
36828;BME280;22766;48.042;11.192;2023-04-10T11:58:29;95359.09;;;19.58;24.88
36828;BME280;22766;48.042;11.192;2023-04-10T12:01:02;95351.34;;;20.23;24.61
36828;BME280;22766;48.042;11.192;2023-04-10T12:03:36;95355.63;;;21.07;21.60
36828;BME280;22766;48.042;11.192;2023-04-10T12:06:10;95350.06;;;19.73;23.17
36828;BME280;22766;48.042;11.192;2023-04-10T12:08:47;95356.03;;;20.98;22.01
36828;BME280;22766;48.042;11.192;2023-04-10T12:11:18;95353.22;;;21.50;21.60
36828;BME280;22766;48.042;11.192;2023-04-10T12:13:46;95353.06;;;20.75;21.80
36828;BME280;22766;48.042;11.192;2023-04-10T12:16:13;95337.00;;;21.53;22.64
36828;BME280;22766;48.042;11.192;2023-04-10T12:18:40;95340.94;;;22.31;21.35
36828;BME280;22766;48.042;11.192;2023-04-10T12:21:08;95336.56;;;23.04;21.02
36828;BME280;22766;48.042;11.192;2023-04-10T12:23:37;95346.22;;;22.92;20.70
36828;BME280;22766;48.042;11.192;2023-04-10T12:28:41;95336.31;;;21.33;22.94
36828;BME280;22766;48.042;11.192;2023-04-10T12:31:08;95336.25;;;22.08;21.43
36828;BME280;22766;48.042;11.192;2023-04-10T12:33:35;95331.66;;;22.71;21.31
36828;BME280;22766;48.042;11.192;2023-04-10T12:36:02;95328.97;;;22.96;21.92
36828;BME280;22766;48.042;11.192;2023-04-10T12:38:42;95326.78;;;22.50;20.95
36828;BME280;22766;48.042;11.192;2023-04-10T12:41:11;95338.13;;;21.32;21.73
36828;BME280;22766;48.042;11.192;2023-04-10T12:43:39;95325.56;;;20.90;23.46
36828;BME280;22766;48.042;11.192;2023-04-10T12:46:09;95326.13;;;20.28;22.48
36828;BME280;22766;48.042;11.192;2023-04-10T12:48:36;95324.22;;;20.68;22.78
36828;BME280;22766;48.042;11.192;2023-04-10T12:51:03;95322.28;;;21.52;23.64
36828;BME280;22766;48.042;11.192;2023-04-10T12:53:30;95319.63;;;22.14;22.27
36828;BME280;22766;48.042;11.192;2023-04-10T12:58:25;95311.72;;;23.48;20.16
36828;BME280;22766;48.042;11.192;2023-04-10T13:00:58;95302.63;;;22.60;20.12
36828;BME280;22766;48.042;11.192;2023-04-10T13:03:25;95308.88;;;22.16;21.27
36828;BME280;22766;48.042;11.192;2023-04-10T13:05:53;95303.22;;;22.62;20.86
36828;BME280;22766;48.042;11.192;2023-04-10T13:08:20;95298.66;;;23.23;19.82
36828;BME280;22766;48.042;11.192;2023-04-10T13:10:47;95300.00;;;22.96;20.76
36828;BME280;22766;48.042;11.192;2023-04-10T13:13:15;95301.41;;;22.98;20.94
36828;BME280;22766;48.042;11.192;2023-04-10T13:15:42;95292.25;;;24.01;19.22
36828;BME280;22766;48.042;11.192;2023-04-10T13:18:09;95292.16;;;24.08;19.12
36828;BME280;22766;48.042;11.192;2023-04-10T13:20:38;95289.66;;;23.31;18.88
36828;BME280;22766;48.042;11.192;2023-04-10T13:23:06;95276.63;;;22.70;19.47
36828;BME280;22766;48.042;11.192;2023-04-10T13:25:36;95273.91;;;23.54;18.44
36828;BME280;22766;48.042;11.192;2023-04-10T13:28:06;95278.94;;;23.26;19.02
36828;BME280;22766;48.042;11.192;2023-04-10T13:30:39;95264.91;;;22.66;20.07
36828;BME280;22766;48.042;11.192;2023-04-10T13:33:07;95262.97;;;23.39;19.63
36828;BME280;22766;48.042;11.192;2023-04-10T13:35:34;95267.00;;;23.94;19.05
36828;BME280;22766;48.042;11.192;2023-04-10T13:38:00;95260.75;;;24.18;19.32
36828;BME280;22766;48.042;11.192;2023-04-10T13:40:27;95255.66;;;24.74;19.00
36828;BME280;22766;48.042;11.192;2023-04-10T13:42:54;95261.84;;;24.57;18.65
36828;BME280;22766;48.042;11.192;2023-04-10T13:45:21;95258.13;;;24.06;19.29
36828;BME280;22766;48.042;11.192;2023-04-10T13:47:48;95255.00;;;23.27;19.77
36828;BME280;22766;48.042;11.192;2023-04-10T13:50:15;95254.41;;;22.95;19.56
36828;BME280;22766;48.042;11.192;2023-04-10T13:52:42;95249.16;;;22.41;20.31
36828;BME280;22766;48.042;11.192;2023-04-10T13:55:11;95246.41;;;23.50;19.21
36828;BME280;22766;48.042;11.192;2023-04-10T13:57:38;95236.09;;;22.71;19.91